createdAt,value
2019-03-16T00:01:26.320Z,149866.31
2019-03-16T00:03:56.807Z,149870.16
2019-03-16T00:06:27.306Z,149876.52
2019-03-16T00:08:57.800Z,149877.75
2019-03-16T00:11:28.380Z,149882.81
2019-03-16T00:13:58.975Z,149889.17
2019-03-16T00:16:29.878Z,149886.66
2019-03-16T00:19:00.671Z,149884.09
2019-03-16T00:21:31.451Z,149873.95
2019-03-16T00:24:01.977Z,149880.31
2019-03-16T00:26:32.441Z,149889.17
2019-03-16T00:29:02.909Z,149893.02
2019-03-16T00:31:33.757Z,149887.94
2019-03-16T00:34:04.217Z,149895.53
2019-03-16T00:36:34.676Z,149896.81
2019-03-16T00:39:07.209Z,149896.81
2019-03-16T00:41:37.683Z,149890.45
2019-03-16T00:44:08.177Z,149887.94
2019-03-16T00:46:38.648Z,149877.75
2019-03-16T00:49:09.477Z,149847.30
2019-03-16T00:51:40.093Z,149815.53
2019-03-16T00:54:10.751Z,149801.59
2019-03-16T00:56:41.232Z,149776.19
2019-03-16T00:59:11.715Z,149760.97
2019-03-16T01:01:42.553Z,149766.03
2019-03-16T01:04:13.017Z,149769.83
2019-03-16T01:06:43.485Z,149750.78
2019-03-16T01:09:14.003Z,149731.77
2019-03-16T01:11:44.757Z,149726.70
2019-03-16T01:14:15.642Z,149719.06
2019-03-16T01:16:46.199Z,149711.44
2019-03-16T01:19:16.709Z,149711.44
2019-03-16T01:21:47.184Z,149705.09
2019-03-16T01:24:17.729Z,149693.66
2019-03-16T01:26:48.265Z,149684.81
2019-03-16T01:29:19.187Z,149687.31
2019-03-16T01:31:49.873Z,149687.31
2019-03-16T01:34:20.958Z,149672.09
2019-03-16T01:36:51.472Z,149673.38
2019-03-16T01:39:22.086Z,149670.83
2019-03-16T01:41:52.564Z,149667.03
2019-03-16T01:44:23.046Z,149663.23
2019-03-16T01:46:53.655Z,149660.69
2019-03-16T01:49:24.214Z,149656.89
2019-03-16T01:51:54.732Z,149670.83
2019-03-16T01:54:25.307Z,149664.47
2019-03-16T01:56:55.945Z,149637.84
2019-03-16T01:59:26.423Z,149639.12
2019-03-16T02:01:56.927Z,149639.12
2019-03-16T02:04:27.407Z,149628.98
2019-03-16T02:06:57.926Z,149630.22
2019-03-16T02:09:28.848Z,149628.98
2019-03-16T02:12:00.604Z,149642.91
2019-03-16T02:14:31.501Z,149642.91
2019-03-16T02:17:02.089Z,149626.42
2019-03-16T02:19:35.816Z,149628.98
2019-03-16T02:22:05.048Z,149613.72
2019-03-16T02:24:35.799Z,149616.28
2019-03-16T02:27:06.513Z,149602.31
2019-03-16T02:29:37.272Z,149601.03
2019-03-16T02:32:07.807Z,149595.95
2019-03-16T02:34:38.387Z,149597.23
2019-03-16T02:37:08.848Z,149590.89
2019-03-16T02:39:39.437Z,149592.16
2019-03-16T02:42:10.183Z,149566.78
2019-03-16T02:44:40.710Z,149561.70
2019-03-16T02:47:11.493Z,149562.98
2019-03-16T02:49:42.096Z,149552.84
2019-03-16T02:52:12.597Z,149556.64
2019-03-16T02:54:43.398Z,149571.84
2019-03-16T02:57:13.914Z,149557.92
2019-03-16T02:59:44.399Z,149557.92
2019-03-16T03:02:15.004Z,149554.13
2019-03-16T03:04:46.595Z,149552.84
2019-03-16T03:07:17.345Z,149545.22
2019-03-16T03:09:48.126Z,149545.22
2019-03-16T03:12:18.623Z,149540.11
2019-03-16T03:14:49.437Z,149546.50
2019-03-16T03:17:20.057Z,149550.28
2019-03-16T03:19:50.833Z,149543.94
2019-03-16T03:22:21.293Z,149535.03
2019-03-16T03:24:51.762Z,149533.75
2019-03-16T03:27:22.251Z,149533.75
2019-03-16T03:29:57.162Z,149538.83
2019-03-16T03:32:25.607Z,149524.91
2019-03-16T03:34:56.091Z,149517.28
2019-03-16T03:37:26.568Z,149519.84
2019-03-16T03:39:57.331Z,149529.97
2019-03-16T03:42:28.139Z,149521.06
2019-03-16T03:44:58.704Z,149519.84
2019-03-16T03:47:29.266Z,149519.84
2019-03-16T03:49:59.670Z,149517.28
2019-03-16T03:52:30.151Z,149510.94
2019-03-16T03:55:00.696Z,149514.72
2019-03-16T03:57:31.447Z,149518.56
2019-03-16T04:00:02.495Z,149524.91
2019-03-16T04:02:33.015Z,149528.69
2019-03-16T04:05:03.779Z,149527.41
2019-03-16T04:07:34.278Z,149524.91
2019-03-16T04:10:05.234Z,149517.28
2019-03-16T04:12:36.357Z,149524.91
2019-03-16T04:15:07.621Z,149524.91
2019-03-16T04:17:38.176Z,149526.13
2019-03-16T04:20:09.725Z,149531.25
2019-03-16T04:22:40.196Z,149533.75
2019-03-16T04:25:11.054Z,149531.25
2019-03-16T04:27:41.507Z,149526.13
2019-03-16T04:30:12.222Z,149535.03
2019-03-16T04:32:42.734Z,149531.25
2019-03-16T04:35:13.246Z,149532.47
2019-03-16T04:37:43.790Z,149537.55
2019-03-16T04:40:14.287Z,149536.31
2019-03-16T04:42:44.778Z,149532.47
2019-03-16T04:45:15.287Z,149535.03
2019-03-16T04:47:45.881Z,149533.75
2019-03-16T04:50:16.372Z,149540.11
2019-03-16T04:52:46.994Z,149526.13
2019-03-16T04:55:18.116Z,149533.75
2019-03-16T04:57:48.603Z,149540.11
2019-03-16T05:00:19.511Z,149540.11
2019-03-16T05:02:50.323Z,149537.55
2019-03-16T05:05:21.076Z,149537.55
2019-03-16T05:07:51.539Z,149546.50
2019-03-16T05:10:22.240Z,149551.56
2019-03-16T05:12:52.970Z,149551.56
2019-03-16T05:15:23.714Z,149549.02
2019-03-16T05:17:54.251Z,149559.19
2019-03-16T05:20:25.068Z,149549.02
2019-03-16T05:22:55.570Z,149541.38
2019-03-16T05:25:26.112Z,149541.38
2019-03-16T05:27:56.501Z,149536.31
2019-03-16T05:30:27.249Z,149537.55
2019-03-16T05:32:57.779Z,149533.75
2019-03-16T05:35:28.218Z,149533.75
2019-03-16T05:37:58.698Z,149519.84
2019-03-16T05:40:29.385Z,149522.34
2019-03-16T05:43:00.509Z,149507.14
2019-03-16T05:45:31.324Z,149513.48
2019-03-16T05:48:02.208Z,149502.06
2019-03-16T05:50:32.982Z,149509.66
2019-03-16T05:53:03.462Z,149509.66
2019-03-16T05:55:34.144Z,149502.06
2019-03-16T05:58:04.600Z,149499.52
2019-03-16T06:00:35.059Z,149507.14
2019-03-16T06:03:06.289Z,149499.52
2019-03-16T06:05:36.739Z,149499.52
2019-03-16T06:08:07.220Z,149500.80
2019-03-16T06:10:38.237Z,149491.89
2019-03-16T06:13:08.711Z,149486.81
2019-03-16T06:15:39.269Z,149481.75
2019-03-16T06:18:12.968Z,149484.31
2019-03-16T06:20:42.154Z,149490.66
2019-03-16T06:23:12.659Z,149480.47
2019-03-16T06:25:43.113Z,149474.13
2019-03-16T06:28:13.846Z,149485.55
2019-03-16T06:30:44.326Z,149472.91
2019-03-16T06:33:14.874Z,149469.06
2019-03-16T06:35:45.640Z,149474.13
2019-03-16T06:38:16.543Z,149466.56
2019-03-16T06:40:47.035Z,149480.47
2019-03-16T06:43:17.489Z,149484.31
2019-03-16T06:45:47.984Z,149495.72
2019-03-16T06:48:18.444Z,149509.66
2019-03-16T06:50:48.982Z,149509.66
2019-03-16T06:53:19.716Z,149508.42
2019-03-16T06:55:50.769Z,149516.00
2019-03-16T06:58:21.585Z,149517.28
2019-03-16T07:00:52.081Z,149516.00
2019-03-16T07:03:22.592Z,149537.55
2019-03-16T07:05:53.375Z,149526.13
2019-03-16T07:08:23.837Z,149536.31
2019-03-16T07:10:55.025Z,149545.22
2019-03-16T07:13:25.473Z,149561.70
2019-03-16T07:15:56.010Z,149573.13
2019-03-16T07:18:26.579Z,149602.31
2019-03-16T07:20:57.410Z,149636.56
2019-03-16T07:23:28.054Z,149661.97
2019-03-16T07:25:58.790Z,149696.22
2019-03-16T07:28:29.244Z,149707.64
2019-03-16T07:30:59.745Z,149730.50
2019-03-16T07:33:30.284Z,149764.75
2019-03-16T07:36:00.783Z,149796.47
2019-03-16T07:38:31.300Z,149844.75
2019-03-16T07:41:01.780Z,149893.02
2019-03-16T07:43:32.618Z,149939.97
2019-03-16T07:46:03.093Z,149988.25
2019-03-16T07:48:33.805Z,150014.97
2019-03-16T07:51:04.498Z,150041.69
2019-03-16T07:53:35.253Z,150061.98
2019-03-16T07:56:05.722Z,150073.42
2019-03-16T07:58:36.214Z,150083.63
2019-03-16T08:01:06.801Z,150093.78
2019-03-16T08:03:37.663Z,150109.02
2019-03-16T08:06:08.144Z,150117.94
2019-03-16T08:08:38.908Z,150136.97
2019-03-16T08:11:09.423Z,150142.05
2019-03-16T08:13:40.001Z,150147.12
2019-03-16T08:16:10.458Z,150156.05
2019-03-16T08:18:41.103Z,150152.25
2019-03-16T08:21:11.632Z,150157.33
2019-03-16T08:23:42.371Z,150162.41
2019-03-16T08:26:12.936Z,150161.12
2019-03-16T08:28:43.661Z,150170.06
2019-03-16T08:31:14.939Z,150164.92
2019-03-16T08:33:45.612Z,150161.12
2019-03-16T08:36:16.139Z,150156.05
2019-03-16T08:38:46.588Z,150150.97
2019-03-16T08:41:17.091Z,150142.05
2019-03-16T08:43:47.966Z,150129.38
2019-03-16T08:46:18.532Z,150131.89
2019-03-16T08:48:50.128Z,150139.53
2019-03-16T08:51:20.625Z,150162.41
2019-03-16T08:53:51.286Z,150168.77
2019-03-16T08:56:22.996Z,150173.84
2019-03-16T08:58:53.613Z,150181.50
2019-03-16T09:01:24.137Z,150172.56
2019-03-16T09:03:57.307Z,150170.06
2019-03-16T09:06:27.777Z,150167.48
2019-03-16T09:08:58.519Z,150156.05
2019-03-16T09:11:29.374Z,150157.33
2019-03-16T09:13:59.852Z,150166.20
2019-03-16T09:16:30.327Z,150162.41
2019-03-16T09:19:00.837Z,150172.56
2019-03-16T09:21:31.597Z,150180.22
2019-03-16T09:24:02.363Z,150182.72
2019-03-16T09:26:32.885Z,150189.09
2019-03-16T09:29:14.343Z,150199.25
2019-03-16T09:31:35.911Z,150185.30
2019-03-16T09:34:06.435Z,150191.66
2019-03-16T09:36:37.066Z,150187.80
2019-03-16T09:39:09.328Z,150192.94
2019-03-16T09:41:40.015Z,150203.09
2019-03-16T09:44:10.504Z,150198.02
2019-03-16T09:46:40.954Z,150217.05
2019-03-16T09:49:11.504Z,150239.94
2019-03-16T09:51:42.329Z,150276.83
2019-03-16T09:54:12.826Z,150318.81
2019-03-16T09:56:43.348Z,150342.98
2019-03-16T09:59:14.302Z,150368.39
2019-03-16T10:01:44.807Z,150374.75
2019-03-16T10:04:15.628Z,150401.45
2019-03-16T10:06:46.366Z,150396.38
2019-03-16T10:09:16.833Z,150390.00
2019-03-16T10:11:47.331Z,150406.58
2019-03-16T10:14:18.165Z,150424.39
2019-03-16T10:16:48.987Z,150443.50
2019-03-16T10:19:19.566Z,150454.94
2019-03-16T10:21:50.265Z,150456.22
2019-03-16T10:24:21.035Z,150461.31
2019-03-16T10:26:51.989Z,150460.03
2019-03-16T10:29:22.440Z,150476.56
2019-03-16T10:31:53.250Z,150479.12
2019-03-16T10:34:24.135Z,150477.84
2019-03-16T10:36:54.732Z,150460.03
2019-03-16T10:39:25.207Z,150484.22
2019-03-16T10:41:55.718Z,150470.19
2019-03-16T10:44:26.201Z,150460.03
2019-03-16T10:46:56.755Z,150454.94
2019-03-16T10:49:27.569Z,150434.61
2019-03-16T10:51:58.118Z,150429.48
2019-03-16T10:54:28.724Z,150433.33
2019-03-16T10:56:59.544Z,150434.61
2019-03-16T10:59:30.416Z,150426.97
2019-03-16T11:02:00.964Z,150425.69
2019-03-16T11:04:31.507Z,150437.13
2019-03-16T11:07:02.254Z,150456.22
2019-03-16T11:09:32.716Z,150485.50
2019-03-16T11:12:03.502Z,150490.58
2019-03-16T11:14:34.022Z,150485.50
2019-03-16T11:17:04.742Z,150495.66
2019-03-16T11:19:35.297Z,150490.58
2019-03-16T11:22:06.344Z,150485.50
2019-03-16T11:24:37.065Z,150482.94
2019-03-16T11:27:07.654Z,150476.56
2019-03-16T11:29:38.410Z,150472.77
2019-03-16T11:32:09.068Z,150461.31
2019-03-16T11:34:39.618Z,150448.58
2019-03-16T11:37:10.171Z,150440.97
2019-03-16T11:39:41.029Z,150439.69
2019-03-16T11:42:11.801Z,150449.86
2019-03-16T11:44:42.300Z,150437.13
2019-03-16T11:47:12.787Z,150442.22
2019-03-16T11:49:43.568Z,150438.41
2019-03-16T11:52:14.387Z,150425.69
2019-03-16T11:54:44.965Z,150421.88
2019-03-16T11:57:15.525Z,150419.31
2019-03-16T11:59:46.458Z,150434.61
2019-03-16T12:02:17.040Z,150439.69
2019-03-16T12:04:47.654Z,150437.13
2019-03-16T12:07:18.292Z,150424.39
2019-03-16T12:09:48.803Z,150437.13
2019-03-16T12:12:19.710Z,150435.84
2019-03-16T12:14:50.668Z,150424.39
2019-03-16T12:17:21.470Z,150418.03
2019-03-16T12:19:52.032Z,150404.06
2019-03-16T12:22:22.798Z,150406.58
2019-03-16T12:24:53.497Z,150402.73
2019-03-16T12:27:24.184Z,150396.38
2019-03-16T12:29:54.710Z,150383.64
2019-03-16T12:32:25.831Z,150391.28
2019-03-16T12:34:56.305Z,150383.64
2019-03-16T12:37:27.061Z,150383.64
2019-03-16T12:39:57.601Z,150390.00
2019-03-16T12:42:28.141Z,150379.84
2019-03-16T12:44:58.737Z,150383.64
2019-03-16T12:47:31.210Z,150396.38
2019-03-16T12:50:01.442Z,150401.45
2019-03-16T12:52:32.165Z,150390.00
2019-03-16T12:55:02.622Z,150391.28
2019-03-16T12:57:33.380Z,150404.06
2019-03-16T13:00:03.838Z,150397.66
2019-03-16T13:02:34.559Z,150411.72
2019-03-16T13:05:05.418Z,150409.16
2019-03-16T13:07:35.987Z,150410.44
2019-03-16T13:10:07.888Z,150397.66
2019-03-16T13:12:39.209Z,150406.58
2019-03-16T13:15:10.172Z,150410.44
2019-03-16T13:17:40.896Z,150424.39
2019-03-16T13:20:11.900Z,150433.33
2019-03-16T13:22:42.411Z,150429.48
2019-03-16T13:25:13.143Z,150429.48
2019-03-16T13:27:43.680Z,150448.58
2019-03-16T13:30:14.913Z,150448.58
2019-03-16T13:32:45.436Z,150438.41
2019-03-16T13:35:16.286Z,150447.30
2019-03-16T13:37:46.884Z,150453.66
2019-03-16T13:40:17.643Z,150447.30
2019-03-16T13:42:48.217Z,150460.03
2019-03-16T13:45:18.838Z,150467.69
2019-03-16T13:47:51.778Z,150463.87
2019-03-16T13:50:21.777Z,150456.22
2019-03-16T13:52:52.901Z,150442.22
2019-03-16T13:55:23.686Z,150454.94
2019-03-16T13:57:54.110Z,150447.30
2019-03-16T14:00:25.112Z,150435.84
2019-03-16T14:02:55.593Z,150424.39
2019-03-16T14:05:26.475Z,150430.77
2019-03-16T14:07:56.893Z,150426.97
2019-03-16T14:10:27.807Z,150428.25
2019-03-16T14:12:58.563Z,150439.69
2019-03-16T14:15:29.320Z,150447.30
2019-03-16T14:17:59.787Z,150462.59
2019-03-16T14:20:30.382Z,150453.66
2019-03-16T14:23:01.785Z,150460.03
2019-03-16T14:25:32.286Z,150465.11
2019-03-16T14:28:02.887Z,150465.11
2019-03-16T14:30:40.967Z,150472.77
2019-03-16T14:33:05.634Z,150479.12
2019-03-16T14:35:36.486Z,150485.50
2019-03-16T14:38:07.251Z,150488.02
2019-03-16T14:40:38.025Z,150475.33
2019-03-16T14:43:11.325Z,150471.48
2019-03-16T14:45:41.169Z,150467.69
2019-03-16T14:48:11.652Z,150472.77
2019-03-16T14:50:42.254Z,150485.50
2019-03-16T14:53:12.708Z,150477.84
2019-03-16T14:55:43.181Z,150484.22
2019-03-16T14:58:13.730Z,150484.22
2019-03-16T15:00:45.101Z,150479.12
2019-03-16T15:03:15.580Z,150470.19
2019-03-16T15:05:46.204Z,150462.59
2019-03-16T15:08:16.889Z,150466.39
2019-03-16T15:10:47.639Z,150457.52
2019-03-16T15:13:18.200Z,150465.11
2019-03-16T15:15:48.921Z,150467.69
2019-03-16T15:18:19.408Z,150485.50
2019-03-16T15:20:50.190Z,150493.09
2019-03-16T15:23:20.657Z,150502.03
2019-03-16T15:25:51.077Z,150503.31
2019-03-16T15:28:21.885Z,150513.48
2019-03-16T15:30:52.641Z,150526.22
2019-03-16T15:33:23.112Z,150526.22
2019-03-16T15:35:53.719Z,150518.56
2019-03-16T15:38:24.528Z,150523.66
2019-03-16T15:40:55.335Z,150519.84
2019-03-16T15:43:25.896Z,150526.22
2019-03-16T15:45:57.066Z,150533.83
2019-03-16T15:48:27.724Z,150521.14
2019-03-16T15:50:58.533Z,150498.23
2019-03-16T15:53:29.024Z,150508.41
2019-03-16T15:55:59.665Z,150505.84
2019-03-16T15:58:30.232Z,150521.14
2019-03-16T16:01:03.823Z,150522.38
2019-03-16T16:03:33.001Z,150523.66
2019-03-16T16:06:03.459Z,150522.38
2019-03-16T16:08:34.243Z,150510.92
2019-03-16T16:11:04.855Z,150494.37
2019-03-16T16:13:35.375Z,150493.09
2019-03-16T16:16:05.826Z,150488.02
2019-03-16T16:18:36.613Z,150477.84
2019-03-16T16:21:07.142Z,150467.69
2019-03-16T16:23:37.704Z,150461.31
2019-03-16T16:26:08.487Z,150466.39
2019-03-16T16:28:38.975Z,150461.31
2019-03-16T16:31:16.256Z,150457.52
2019-03-16T16:33:42.232Z,150454.94
2019-03-16T16:36:12.846Z,150462.59
2019-03-16T16:38:44.677Z,150457.52
2019-03-16T16:41:15.184Z,150457.52
2019-03-16T16:43:45.699Z,150449.86
2019-03-16T16:46:16.216Z,150456.22
2019-03-16T16:48:46.866Z,150457.52
2019-03-16T16:51:17.463Z,150451.14
2019-03-16T16:53:48.069Z,150457.52
2019-03-16T16:56:19.093Z,150444.78
2019-03-16T16:58:49.493Z,150446.06
2019-03-16T17:01:29.272Z,150442.22
2019-03-16T17:03:52.322Z,150442.22
2019-03-16T17:06:22.992Z,150439.69
2019-03-16T17:08:53.568Z,150434.61
2019-03-16T17:11:26.254Z,150449.86
2019-03-16T17:13:56.476Z,150443.50
2019-03-16T17:16:26.952Z,150444.78
2019-03-16T17:18:57.751Z,150451.14
2019-03-16T17:21:28.189Z,150449.86
2019-03-16T17:23:59.058Z,150452.42
2019-03-16T17:26:29.606Z,150444.78
2019-03-16T17:29:00.062Z,150438.41
2019-03-16T17:31:41.739Z,150439.69
2019-03-16T17:34:02.777Z,150433.33
2019-03-16T17:36:33.294Z,150432.05
2019-03-16T17:39:04.865Z,150425.69
2019-03-16T17:41:35.936Z,150420.59
2019-03-16T17:44:06.483Z,150420.59
2019-03-16T17:46:37.025Z,150419.31
2019-03-16T17:49:08.011Z,150409.16
2019-03-16T17:51:38.562Z,150415.52
2019-03-16T17:54:09.100Z,150409.16
2019-03-16T17:56:39.622Z,150405.34
2019-03-16T17:59:14.343Z,150410.44
2019-03-16T18:01:54.215Z,150411.72
2019-03-16T18:04:17.413Z,150395.08
2019-03-16T18:06:47.984Z,150396.38
2019-03-16T18:09:18.522Z,150398.94
2019-03-16T18:11:49.029Z,150392.56
2019-03-16T18:14:19.535Z,150386.20
2019-03-16T18:16:50.127Z,150384.92
2019-03-16T18:19:20.677Z,150397.66
2019-03-16T18:21:51.193Z,150393.84
2019-03-16T18:24:21.745Z,150390.00
2019-03-16T18:26:52.380Z,150391.28
2019-03-16T18:29:22.896Z,150374.75
2019-03-16T18:31:53.709Z,150376.03
2019-03-16T18:34:24.223Z,150386.20
2019-03-16T18:36:56.298Z,150377.31
2019-03-16T18:39:26.767Z,150379.84
2019-03-16T18:41:57.216Z,150379.84
2019-03-16T18:44:27.709Z,150386.20
2019-03-16T18:46:58.273Z,150391.28
2019-03-16T18:49:28.727Z,150386.20
2019-03-16T18:51:59.233Z,150392.56
2019-03-16T18:54:29.739Z,150386.20
2019-03-16T18:57:00.464Z,150384.92
2019-03-16T18:59:30.863Z,150391.28
2019-03-16T19:02:01.612Z,150382.41
2019-03-16T19:04:32.359Z,150386.20
2019-03-16T19:07:03.360Z,150379.84
2019-03-16T19:09:34.449Z,150382.41
2019-03-16T19:12:05.216Z,150377.31
2019-03-16T19:14:35.692Z,150391.28
2019-03-16T19:17:06.483Z,150383.64
2019-03-16T19:19:36.987Z,150379.84
2019-03-16T19:22:07.527Z,150395.08
2019-03-16T19:24:38.309Z,150384.92
2019-03-16T19:27:08.826Z,150386.20
2019-03-16T19:29:39.280Z,150384.92
2019-03-16T19:32:10.077Z,150388.77
2019-03-16T19:34:40.604Z,150384.92
2019-03-16T19:37:11.449Z,150382.41
2019-03-16T19:39:41.995Z,150370.95
2019-03-16T19:42:12.496Z,150376.03
2019-03-16T19:44:42.992Z,150360.75
2019-03-16T19:47:13.517Z,150360.75
2019-03-16T19:49:43.972Z,150358.22
2019-03-16T19:52:14.450Z,150349.30
2019-03-16T19:54:44.986Z,150346.78
2019-03-16T19:57:16.482Z,150340.41
2019-03-16T19:59:47.295Z,150330.25
2019-03-16T20:02:18.115Z,150340.41
2019-03-16T20:04:48.570Z,150335.33
2019-03-16T20:07:20.006Z,150313.72
2019-03-16T20:09:51.533Z,150313.72
2019-03-16T20:12:22.046Z,150314.95
2019-03-16T20:14:52.985Z,150307.36
2019-03-16T20:17:23.936Z,150323.89
2019-03-16T20:19:54.612Z,150317.53
2019-03-16T20:22:25.144Z,150320.03
2019-03-16T20:24:55.716Z,150308.59
2019-03-16T20:27:26.282Z,150302.28
2019-03-16T20:29:57.109Z,150304.80
2019-03-16T20:32:27.787Z,150328.97
2019-03-16T20:35:01.571Z,150312.44
2019-03-16T20:37:32.194Z,150289.55
2019-03-16T20:40:02.722Z,150290.83
2019-03-16T20:42:33.665Z,150303.52
2019-03-16T20:45:04.234Z,150284.47
2019-03-16T20:47:34.752Z,150285.70
2019-03-16T20:50:06.358Z,150279.39
2019-03-16T20:52:37.356Z,150285.70
2019-03-16T20:55:08.130Z,150270.47
2019-03-16T20:57:38.619Z,150267.94
2019-03-16T21:00:10.690Z,150276.83
2019-03-16T21:02:41.188Z,150273.03
2019-03-16T21:05:12.071Z,150260.30
2019-03-16T21:07:45.975Z,150261.58
2019-03-16T21:10:16.422Z,150264.09
2019-03-16T21:12:47.172Z,150260.30
2019-03-16T21:15:17.938Z,150259.02
2019-03-16T21:17:49.276Z,150252.66
2019-03-16T21:20:19.886Z,150259.02
2019-03-16T21:22:50.479Z,150248.86
2019-03-16T21:25:21.388Z,150246.30
2019-03-16T21:27:51.951Z,150257.73
2019-03-16T21:30:22.449Z,150253.94
2019-03-16T21:32:53.260Z,150259.02
2019-03-16T21:35:24.241Z,150264.09
2019-03-16T21:37:55.308Z,150261.58
2019-03-16T21:40:25.825Z,150271.75
2019-03-16T21:42:56.435Z,150274.27
2019-03-16T21:45:27.426Z,150266.66
2019-03-16T21:48:00.185Z,150266.66
2019-03-16T21:50:30.242Z,150281.91
2019-03-16T21:53:00.766Z,150289.55
2019-03-16T21:55:32.059Z,150306.08
2019-03-16T21:58:02.864Z,150295.91
2019-03-16T22:00:33.386Z,150299.72
2019-03-16T22:03:03.963Z,150299.72
2019-03-16T22:05:34.826Z,150301.00
2019-03-16T22:08:05.552Z,150301.00
2019-03-16T22:10:36.417Z,150299.72
2019-03-16T22:13:06.928Z,150312.44
2019-03-16T22:15:38.422Z,150328.97
2019-03-16T22:18:09.001Z,150330.25
2019-03-16T22:20:39.611Z,150330.25
2019-03-16T22:23:10.144Z,150331.48
2019-03-16T22:25:40.639Z,150344.22
2019-03-16T22:28:11.280Z,150356.94
2019-03-16T22:30:42.174Z,150344.22
2019-03-16T22:33:12.751Z,150353.14
2019-03-16T22:35:43.340Z,150364.59
2019-03-16T22:38:14.517Z,150360.75
2019-03-16T22:40:45.364Z,150364.59
2019-03-16T22:43:16.261Z,150355.66
2019-03-16T22:45:46.839Z,150383.64
2019-03-16T22:48:17.331Z,150395.08
2019-03-16T22:50:48.185Z,150404.06
2019-03-16T22:53:18.709Z,150416.80
2019-03-16T22:55:49.359Z,150420.59
2019-03-16T22:58:20.046Z,150444.78
2019-03-16T23:00:53.291Z,150443.50
2019-03-16T23:03:23.922Z,150454.94
2019-03-16T23:05:54.305Z,150451.14
2019-03-16T23:08:25.555Z,150449.86
2019-03-16T23:10:56.079Z,150444.78
2019-03-16T23:13:26.807Z,150440.97
2019-03-16T23:15:57.311Z,150460.03
2019-03-16T23:18:28.071Z,150462.59
2019-03-16T23:20:58.628Z,150472.77
2019-03-16T23:23:29.428Z,150470.19
2019-03-16T23:25:59.894Z,150462.59
2019-03-16T23:28:30.411Z,150471.48
2019-03-16T23:31:00.954Z,150463.87
2019-03-16T23:33:31.472Z,150480.41
2019-03-16T23:36:02.647Z,150472.77
2019-03-16T23:38:33.240Z,150479.12
2019-03-16T23:43:32.200Z,150482.94
2019-03-16T23:46:02.783Z,150481.66
2019-03-16T23:48:33.269Z,150481.66
2019-03-16T23:51:03.758Z,150481.66
2019-03-16T23:53:34.533Z,150485.50
2019-03-16T23:56:05.076Z,150474.05
2019-03-16T23:58:35.508Z,150474.05
